sensor_id;sensor_type;location;lat;lon;timestamp;P1;durP1;ratioP1;P2;durP2;ratioP2
23390;SDS011;11868;45.606;5.302;2023-07-30T00:01:29;4.22;;;3.83;;
23390;SDS011;11868;45.606;5.302;2023-07-30T00:03:54;4.60;;;3.67;;
23390;SDS011;11868;45.606;5.302;2023-07-30T00:06:19;4.95;;;3.83;;
23390;SDS011;11868;45.606;5.302;2023-07-30T00:08:45;4.43;;;3.45;;
23390;SDS011;11868;45.606;5.302;2023-07-30T00:11:10;6.60;;;4.35;;
23390;SDS011;11868;45.606;5.302;2023-07-30T00:13:35;6.43;;;3.67;;
23390;SDS011;11868;45.606;5.302;2023-07-30T00:16:01;4.22;;;3.75;;
23390;SDS011;11868;45.606;5.302;2023-07-30T00:18:26;6.72;;;4.32;;
23390;SDS011;11868;45.606;5.302;2023-07-30T00:20:51;7.25;;;4.53;;
23390;SDS011;11868;45.606;5.302;2023-07-30T00:23:17;6.65;;;3.97;;
23390;SDS011;11868;45.606;5.302;2023-07-30T00:25:42;5.70;;;4.40;;
23390;SDS011;11868;45.606;5.302;2023-07-30T00:28:07;5.45;;;4.53;;
23390;SDS011;11868;45.606;5.302;2023-07-30T00:30:33;5.50;;;3.90;;
23390;SDS011;11868;45.606;5.302;2023-07-30T00:32:58;8.07;;;4.35;;
23390;SDS011;11868;45.606;5.302;2023-07-30T00:35:23;6.30;;;4.50;;
23390;SDS011;11868;45.606;5.302;2023-07-30T00:37:49;5.47;;;4.63;;
23390;SDS011;11868;45.606;5.302;2023-07-30T00:40:14;6.68;;;5.00;;
23390;SDS011;11868;45.606;5.302;2023-07-30T00:42:39;7.18;;;5.30;;
23390;SDS011;11868;45.606;5.302;2023-07-30T00:45:05;15.13;;;5.53;;
23390;SDS011;11868;45.606;5.302;2023-07-30T00:47:31;6.18;;;4.75;;
23390;SDS011;11868;45.606;5.302;2023-07-30T00:49:56;9.15;;;5.32;;
23390;SDS011;11868;45.606;5.302;2023-07-30T00:52:22;8.32;;;5.28;;
23390;SDS011;11868;45.606;5.302;2023-07-30T00:54:48;6.93;;;5.03;;
23390;SDS011;11868;45.606;5.302;2023-07-30T00:57:14;6.45;;;4.75;;
23390;SDS011;11868;45.606;5.302;2023-07-30T00:59:41;7.25;;;4.70;;
23390;SDS011;11868;45.606;5.302;2023-07-30T01:02:06;6.03;;;4.57;;
23390;SDS011;11868;45.606;5.302;2023-07-30T01:04:32;5.85;;;4.55;;
23390;SDS011;11868;45.606;5.302;2023-07-30T01:06:57;6.20;;;4.53;;
23390;SDS011;11868;45.606;5.302;2023-07-30T01:09:22;7.28;;;4.53;;
23390;SDS011;11868;45.606;5.302;2023-07-30T01:11:48;6.45;;;4.60;;
23390;SDS011;11868;45.606;5.302;2023-07-30T01:14:13;13.73;;;5.15;;
23390;SDS011;11868;45.606;5.302;2023-07-30T01:16:40;4.65;;;4.10;;
23390;SDS011;11868;45.606;5.302;2023-07-30T01:19:05;8.55;;;4.38;;
23390;SDS011;11868;45.606;5.302;2023-07-30T01:21:34;9.95;;;4.32;;
23390;SDS011;11868;45.606;5.302;2023-07-30T01:24:00;4.80;;;4.30;;
23390;SDS011;11868;45.606;5.302;2023-07-30T01:26:27;8.07;;;4.13;;
23390;SDS011;11868;45.606;5.302;2023-07-30T01:28:56;8.30;;;4.50;;
23390;SDS011;11868;45.606;5.302;2023-07-30T01:31:26;6.88;;;4.28;;
23390;SDS011;11868;45.606;5.302;2023-07-30T01:33:53;6.30;;;4.20;;
23390;SDS011;11868;45.606;5.302;2023-07-30T01:36:20;7.30;;;4.72;;
23390;SDS011;11868;45.606;5.302;2023-07-30T01:38:45;9.88;;;4.50;;
23390;SDS011;11868;45.606;5.302;2023-07-30T01:41:12;5.78;;;4.55;;
23390;SDS011;11868;45.606;5.302;2023-07-30T01:43:37;8.82;;;4.40;;
23390;SDS011;11868;45.606;5.302;2023-07-30T01:46:03;6.15;;;3.78;;
23390;SDS011;11868;45.606;5.302;2023-07-30T01:48:28;4.70;;;3.78;;
23390;SDS011;11868;45.606;5.302;2023-07-30T01:50:54;6.32;;;4.22;;
23390;SDS011;11868;45.606;5.302;2023-07-30T01:53:19;6.20;;;4.40;;
23390;SDS011;11868;45.606;5.302;2023-07-30T01:55:44;5.82;;;4.43;;
23390;SDS011;11868;45.606;5.302;2023-07-30T01:58:11;5.45;;;4.47;;
23390;SDS011;11868;45.606;5.302;2023-07-30T02:00:39;7.18;;;4.00;;
23390;SDS011;11868;45.606;5.302;2023-07-30T02:03:05;4.18;;;3.78;;
23390;SDS011;11868;45.606;5.302;2023-07-30T02:05:30;7.53;;;4.28;;
23390;SDS011;11868;45.606;5.302;2023-07-30T02:07:56;7.05;;;3.90;;
23390;SDS011;11868;45.606;5.302;2023-07-30T02:10:21;8.02;;;3.85;;
23390;SDS011;11868;45.606;5.302;2023-07-30T02:12:48;5.93;;;4.47;;
23390;SDS011;11868;45.606;5.302;2023-07-30T02:15:14;6.18;;;3.80;;
23390;SDS011;11868;45.606;5.302;2023-07-30T02:17:39;5.03;;;3.88;;
23390;SDS011;11868;45.606;5.302;2023-07-30T02:20:05;6.53;;;4.10;;
23390;SDS011;11868;45.606;5.302;2023-07-30T02:22:31;7.20;;;4.03;;
23390;SDS011;11868;45.606;5.302;2023-07-30T02:24:56;5.25;;;4.10;;
23390;SDS011;11868;45.606;5.302;2023-07-30T02:27:22;4.97;;;4.40;;
23390;SDS011;11868;45.606;5.302;2023-07-30T02:29:47;6.13;;;4.38;;
23390;SDS011;11868;45.606;5.302;2023-07-30T02:32:13;5.50;;;4.40;;
23390;SDS011;11868;45.606;5.302;2023-07-30T02:34:38;9.02;;;4.65;;
23390;SDS011;11868;45.606;5.302;2023-07-30T02:37:03;8.10;;;4.30;;
23390;SDS011;11868;45.606;5.302;2023-07-30T02:39:29;4.68;;;3.95;;
23390;SDS011;11868;45.606;5.302;2023-07-30T02:41:54;5.28;;;4.05;;
23390;SDS011;11868;45.606;5.302;2023-07-30T02:44:19;4.72;;;4.00;;
23390;SDS011;11868;45.606;5.302;2023-07-30T02:46:45;7.13;;;4.70;;
23390;SDS011;11868;45.606;5.302;2023-07-30T02:49:10;6.40;;;4.40;;
23390;SDS011;11868;45.606;5.302;2023-07-30T02:51:35;5.93;;;4.20;;
23390;SDS011;11868;45.606;5.302;2023-07-30T02:54:03;5.60;;;4.10;;
23390;SDS011;11868;45.606;5.302;2023-07-30T02:56:29;7.10;;;4.65;;
23390;SDS011;11868;45.606;5.302;2023-07-30T02:58:55;7.28;;;4.18;;
23390;SDS011;11868;45.606;5.302;2023-07-30T03:01:20;8.48;;;3.83;;
23390;SDS011;11868;45.606;5.302;2023-07-30T03:03:45;7.57;;;4.10;;
23390;SDS011;11868;45.606;5.302;2023-07-30T03:06:11;4.72;;;4.20;;
23390;SDS011;11868;45.606;5.302;2023-07-30T03:08:36;6.95;;;4.15;;
23390;SDS011;11868;45.606;5.302;2023-07-30T03:11:02;8.35;;;4.03;;
23390;SDS011;11868;45.606;5.302;2023-07-30T03:13:27;6.40;;;4.13;;
23390;SDS011;11868;45.606;5.302;2023-07-30T03:15:52;6.88;;;4.53;;
23390;SDS011;11868;45.606;5.302;2023-07-30T03:18:18;7.40;;;4.50;;
23390;SDS011;11868;45.606;5.302;2023-07-30T03:20:43;4.70;;;3.97;;
23390;SDS011;11868;45.606;5.302;2023-07-30T03:23:09;6.55;;;4.57;;
23390;SDS011;11868;45.606;5.302;2023-07-30T03:25:34;5.35;;;4.03;;
23390;SDS011;11868;45.606;5.302;2023-07-30T03:27:59;7.68;;;4.53;;
23390;SDS011;11868;45.606;5.302;2023-07-30T03:30:25;6.82;;;4.10;;
23390;SDS011;11868;45.606;5.302;2023-07-30T03:32:50;6.30;;;4.40;;
23390;SDS011;11868;45.606;5.302;2023-07-30T03:35:15;5.85;;;3.80;;
23390;SDS011;11868;45.606;5.302;2023-07-30T03:37:41;5.90;;;4.35;;
23390;SDS011;11868;45.606;5.302;2023-07-30T03:40:06;6.60;;;4.18;;
23390;SDS011;11868;45.606;5.302;2023-07-30T03:42:32;9.80;;;4.72;;
23390;SDS011;11868;45.606;5.302;2023-07-30T03:44:57;6.97;;;4.63;;
23390;SDS011;11868;45.606;5.302;2023-07-30T03:47:23;6.63;;;4.47;;
23390;SDS011;11868;45.606;5.302;2023-07-30T03:49:48;8.05;;;4.50;;
23390;SDS011;11868;45.606;5.302;2023-07-30T03:52:13;5.50;;;4.65;;
23390;SDS011;11868;45.606;5.302;2023-07-30T03:54:38;4.50;;;3.83;;
23390;SDS011;11868;45.606;5.302;2023-07-30T03:57:04;7.72;;;3.95;;
23390;SDS011;11868;45.606;5.302;2023-07-30T03:59:29;6.32;;;4.25;;
23390;SDS011;11868;45.606;5.302;2023-07-30T04:01:55;6.30;;;4.55;;
23390;SDS011;11868;45.606;5.302;2023-07-30T04:04:20;6.15;;;4.45;;
23390;SDS011;11868;45.606;5.302;2023-07-30T04:06:45;7.00;;;4.38;;
23390;SDS011;11868;45.606;5.302;2023-07-30T04:09:11;5.35;;;4.20;;
23390;SDS011;11868;45.606;5.302;2023-07-30T04:11:36;7.00;;;4.93;;
23390;SDS011;11868;45.606;5.302;2023-07-30T04:14:01;6.05;;;4.38;;
23390;SDS011;11868;45.606;5.302;2023-07-30T04:16:29;7.65;;;5.10;;
23390;SDS011;11868;45.606;5.302;2023-07-30T04:18:55;7.60;;;4.80;;
23390;SDS011;11868;45.606;5.302;2023-07-30T04:21:20;9.63;;;5.25;;
23390;SDS011;11868;45.606;5.302;2023-07-30T04:23:46;6.80;;;4.68;;
23390;SDS011;11868;45.606;5.302;2023-07-30T04:26:11;6.38;;;4.70;;
23390;SDS011;11868;45.606;5.302;2023-07-30T04:28:37;7.72;;;5.00;;
23390;SDS011;11868;45.606;5.302;2023-07-30T04:31:02;6.78;;;4.80;;
23390;SDS011;11868;45.606;5.302;2023-07-30T04:33:27;7.05;;;4.78;;
23390;SDS011;11868;45.606;5.302;2023-07-30T04:35:53;7.57;;;4.70;;
23390;SDS011;11868;45.606;5.302;2023-07-30T04:38:19;6.82;;;4.70;;
23390;SDS011;11868;45.606;5.302;2023-07-30T04:40:44;6.72;;;4.95;;
23390;SDS011;11868;45.606;5.302;2023-07-30T04:43:09;8.50;;;4.47;;
23390;SDS011;11868;45.606;5.302;2023-07-30T04:45:35;8.13;;;4.78;;
23390;SDS011;11868;45.606;5.302;2023-07-30T04:48:00;7.63;;;4.57;;
23390;SDS011;11868;45.606;5.302;2023-07-30T04:50:25;5.93;;;4.63;;
23390;SDS011;11868;45.606;5.302;2023-07-30T04:52:51;9.10;;;5.18;;
23390;SDS011;11868;45.606;5.302;2023-07-30T04:55:16;9.18;;;4.70;;
23390;SDS011;11868;45.606;5.302;2023-07-30T04:57:42;10.93;;;5.53;;
23390;SDS011;11868;45.606;5.302;2023-07-30T05:00:07;7.13;;;4.80;;
23390;SDS011;11868;45.606;5.302;2023-07-30T05:02:33;5.13;;;4.53;;
23390;SDS011;11868;45.606;5.302;2023-07-30T05:04:58;6.38;;;4.85;;
23390;SDS011;11868;45.606;5.302;2023-07-30T05:07:23;6.15;;;4.93;;
23390;SDS011;11868;45.606;5.302;2023-07-30T05:09:49;8.05;;;5.10;;
23390;SDS011;11868;45.606;5.302;2023-07-30T05:12:14;5.63;;;5.00;;
23390;SDS011;11868;45.606;5.302;2023-07-30T05:14:39;6.45;;;5.05;;
23390;SDS011;11868;45.606;5.302;2023-07-30T05:17:05;7.70;;;5.22;;
23390;SDS011;11868;45.606;5.302;2023-07-30T05:19:30;5.93;;;4.95;;
23390;SDS011;11868;45.606;5.302;2023-07-30T05:21:57;7.50;;;4.88;;
23390;SDS011;11868;45.606;5.302;2023-07-30T05:24:24;8.18;;;5.07;;
23390;SDS011;11868;45.606;5.302;2023-07-30T05:26:49;7.22;;;4.78;;
23390;SDS011;11868;45.606;5.302;2023-07-30T05:29:15;6.57;;;4.80;;
23390;SDS011;11868;45.606;5.302;2023-07-30T05:31:40;9.38;;;4.80;;
23390;SDS011;11868;45.606;5.302;2023-07-30T05:34:05;5.40;;;4.30;;
23390;SDS011;11868;45.606;5.302;2023-07-30T05:36:31;7.63;;;4.75;;
23390;SDS011;11868;45.606;5.302;2023-07-30T05:38:56;5.95;;;4.22;;
23390;SDS011;11868;45.606;5.302;2023-07-30T05:41:21;6.80;;;4.72;;
23390;SDS011;11868;45.606;5.302;2023-07-30T05:43:47;7.70;;;4.65;;
23390;SDS011;11868;45.606;5.302;2023-07-30T05:46:13;5.65;;;4.72;;
23390;SDS011;11868;45.606;5.302;2023-07-30T05:48:38;10.80;;;5.07;;
23390;SDS011;11868;45.606;5.302;2023-07-30T05:51:03;5.57;;;4.32;;
23390;SDS011;11868;45.606;5.302;2023-07-30T05:53:29;6.70;;;4.72;;
23390;SDS011;11868;45.606;5.302;2023-07-30T05:55:55;6.70;;;5.28;;
23390;SDS011;11868;45.606;5.302;2023-07-30T05:58:20;6.80;;;5.43;;
23390;SDS011;11868;45.606;5.302;2023-07-30T06:00:45;7.88;;;5.60;;
23390;SDS011;11868;45.606;5.302;2023-07-30T06:03:11;8.13;;;4.93;;
23390;SDS011;11868;45.606;5.302;2023-07-30T06:05:42;9.10;;;4.93;;
23390;SDS011;11868;45.606;5.302;2023-07-30T06:08:08;8.18;;;5.78;;
23390;SDS011;11868;45.606;5.302;2023-07-30T06:10:37;7.18;;;5.03;;
23390;SDS011;11868;45.606;5.302;2023-07-30T06:15:31;12.00;;;5.30;;
23390;SDS011;11868;45.606;5.302;2023-07-30T06:17:57;7.70;;;4.80;;
23390;SDS011;11868;45.606;5.302;2023-07-30T06:20:23;4.88;;;4.40;;
23390;SDS011;11868;45.606;5.302;2023-07-30T06:22:49;5.82;;;4.65;;
23390;SDS011;11868;45.606;5.302;2023-07-30T06:25:14;6.75;;;5.00;;
23390;SDS011;11868;45.606;5.302;2023-07-30T06:27:40;7.25;;;5.18;;
23390;SDS011;11868;45.606;5.302;2023-07-30T06:30:05;6.88;;;5.38;;
23390;SDS011;11868;45.606;5.302;2023-07-30T06:32:31;6.43;;;5.00;;
23390;SDS011;11868;45.606;5.302;2023-07-30T06:34:56;6.85;;;5.65;;
23390;SDS011;11868;45.606;5.302;2023-07-30T06:37:22;7.40;;;5.90;;
23390;SDS011;11868;45.606;5.302;2023-07-30T06:39:47;9.15;;;7.30;;
23390;SDS011;11868;45.606;5.302;2023-07-30T06:42:12;10.00;;;6.82;;
23390;SDS011;11868;45.606;5.302;2023-07-30T06:44:38;10.80;;;6.82;;
23390;SDS011;11868;45.606;5.302;2023-07-30T06:47:03;11.32;;;6.80;;
23390;SDS011;11868;45.606;5.302;2023-07-30T06:49:28;10.23;;;7.18;;
23390;SDS011;11868;45.606;5.302;2023-07-30T06:51:54;11.30;;;7.50;;
23390;SDS011;11868;45.606;5.302;2023-07-30T06:54:20;12.35;;;7.53;;
23390;SDS011;11868;45.606;5.302;2023-07-30T06:56:45;8.90;;;7.50;;
23390;SDS011;11868;45.606;5.302;2023-07-30T06:59:10;12.98;;;7.82;;
23390;SDS011;11868;45.606;5.302;2023-07-30T07:01:36;9.70;;;7.55;;
23390;SDS011;11868;45.606;5.302;2023-07-30T07:04:01;12.60;;;7.88;;
23390;SDS011;11868;45.606;5.302;2023-07-30T07:06:26;12.02;;;8.30;;
23390;SDS011;11868;45.606;5.302;2023-07-30T07:08:52;15.63;;;9.55;;
23390;SDS011;11868;45.606;5.302;2023-07-30T07:11:17;14.05;;;9.85;;
23390;SDS011;11868;45.606;5.302;2023-07-30T07:13:42;15.55;;;8.57;;
23390;SDS011;11868;45.606;5.302;2023-07-30T07:16:08;11.98;;;9.20;;
23390;SDS011;11868;45.606;5.302;2023-07-30T07:18:33;13.40;;;8.63;;
23390;SDS011;11868;45.606;5.302;2023-07-30T07:20:59;13.60;;;8.07;;
23390;SDS011;11868;45.606;5.302;2023-07-30T07:23:24;10.52;;;8.43;;
23390;SDS011;11868;45.606;5.302;2023-07-30T07:25:50;11.73;;;7.97;;
23390;SDS011;11868;45.606;5.302;2023-07-30T07:28:16;11.00;;;6.85;;
23390;SDS011;11868;45.606;5.302;2023-07-30T07:30:43;3.58;;;3.22;;
23390;SDS011;11868;45.606;5.302;2023-07-30T07:33:09;4.90;;;2.88;;
23390;SDS011;11868;45.606;5.302;2023-07-30T07:35:37;4.80;;;2.70;;
23390;SDS011;11868;45.606;5.302;2023-07-30T07:38:03;5.63;;;2.60;;
23390;SDS011;11868;45.606;5.302;2023-07-30T07:40:29;5.15;;;2.72;;
23390;SDS011;11868;45.606;5.302;2023-07-30T07:42:54;3.75;;;2.40;;
23390;SDS011;11868;45.606;5.302;2023-07-30T07:45:20;2.80;;;2.30;;
23390;SDS011;11868;45.606;5.302;2023-07-30T07:47:45;2.50;;;2.08;;
23390;SDS011;11868;45.606;5.302;2023-07-30T07:50:11;8.73;;;2.00;;
23390;SDS011;11868;45.606;5.302;2023-07-30T07:52:36;4.00;;;2.05;;
23390;SDS011;11868;45.606;5.302;2023-07-30T07:55:01;3.28;;;1.95;;
23390;SDS011;11868;45.606;5.302;2023-07-30T07:57:28;3.33;;;2.00;;
23390;SDS011;11868;45.606;5.302;2023-07-30T07:59:54;4.10;;;2.40;;
23390;SDS011;11868;45.606;5.302;2023-07-30T08:02:20;3.45;;;2.00;;
23390;SDS011;11868;45.606;5.302;2023-07-30T08:04:45;4.53;;;2.00;;
23390;SDS011;11868;45.606;5.302;2023-07-30T08:07:10;3.20;;;1.60;;
23390;SDS011;11868;45.606;5.302;2023-07-30T08:09:36;6.78;;;1.90;;
23390;SDS011;11868;45.606;5.302;2023-07-30T08:12:01;5.22;;;2.03;;
23390;SDS011;11868;45.606;5.302;2023-07-30T08:14:27;3.83;;;1.50;;
23390;SDS011;11868;45.606;5.302;2023-07-30T08:16:52;3.85;;;2.28;;
23390;SDS011;11868;45.606;5.302;2023-07-30T08:19:18;5.70;;;1.90;;
23390;SDS011;11868;45.606;5.302;2023-07-30T08:21:43;5.20;;;2.65;;
23390;SDS011;11868;45.606;5.302;2023-07-30T08:24:08;5.25;;;2.13;;
23390;SDS011;11868;45.606;5.302;2023-07-30T08:26:33;3.50;;;1.83;;
23390;SDS011;11868;45.606;5.302;2023-07-30T08:28:59;3.55;;;2.40;;
23390;SDS011;11868;45.606;5.302;2023-07-30T08:31:24;4.88;;;2.20;;
23390;SDS011;11868;45.606;5.302;2023-07-30T08:33:50;3.05;;;1.92;;
23390;SDS011;11868;45.606;5.302;2023-07-30T08:36:15;3.85;;;2.13;;
23390;SDS011;11868;45.606;5.302;2023-07-30T08:38:40;3.03;;;1.77;;
23390;SDS011;11868;45.606;5.302;2023-07-30T08:41:06;2.25;;;1.85;;
23390;SDS011;11868;45.606;5.302;2023-07-30T08:43:31;4.93;;;2.78;;
23390;SDS011;11868;45.606;5.302;2023-07-30T08:45:59;5.35;;;2.20;;
23390;SDS011;11868;45.606;5.302;2023-07-30T08:48:24;3.13;;;2.00;;
23390;SDS011;11868;45.606;5.302;2023-07-30T08:50:50;3.17;;;1.90;;
23390;SDS011;11868;45.606;5.302;2023-07-30T08:53:15;2.53;;;1.65;;
23390;SDS011;11868;45.606;5.302;2023-07-30T08:55:41;2.15;;;1.80;;
23390;SDS011;11868;45.606;5.302;2023-07-30T08:58:06;2.20;;;1.80;;
23390;SDS011;11868;45.606;5.302;2023-07-30T09:00:34;2.80;;;1.80;;
23390;SDS011;11868;45.606;5.302;2023-07-30T09:03:00;3.63;;;1.83;;
23390;SDS011;11868;45.606;5.302;2023-07-30T09:05:28;4.22;;;1.90;;
23390;SDS011;11868;45.606;5.302;2023-07-30T09:07:55;4.30;;;1.80;;
23390;SDS011;11868;45.606;5.302;2023-07-30T09:10:21;4.38;;;2.08;;
23390;SDS011;11868;45.606;5.302;2023-07-30T09:12:52;3.40;;;2.00;;
23390;SDS011;11868;45.606;5.302;2023-07-30T09:15:19;5.60;;;2.08;;
23390;SDS011;11868;45.606;5.302;2023-07-30T09:17:45;2.55;;;1.90;;
23390;SDS011;11868;45.606;5.302;2023-07-30T09:20:10;3.75;;;1.98;;
23390;SDS011;11868;45.606;5.302;2023-07-30T09:22:36;5.00;;;1.77;;
23390;SDS011;11868;45.606;5.302;2023-07-30T09:25:04;2.45;;;1.65;;
23390;SDS011;11868;45.606;5.302;2023-07-30T09:27:30;2.75;;;1.70;;
23390;SDS011;11868;45.606;5.302;2023-07-30T09:29:56;3.65;;;1.85;;
23390;SDS011;11868;45.606;5.302;2023-07-30T09:32:29;3.63;;;1.83;;
23390;SDS011;11868;45.606;5.302;2023-07-30T09:34:55;2.75;;;2.05;;
23390;SDS011;11868;45.606;5.302;2023-07-30T09:37:29;3.35;;;1.65;;
23390;SDS011;11868;45.606;5.302;2023-07-30T09:39:54;3.15;;;1.70;;
23390;SDS011;11868;45.606;5.302;2023-07-30T09:42:24;5.88;;;1.55;;
23390;SDS011;11868;45.606;5.302;2023-07-30T09:44:52;4.93;;;1.80;;
23390;SDS011;11868;45.606;5.302;2023-07-30T09:47:17;4.50;;;1.95;;
23390;SDS011;11868;45.606;5.302;2023-07-30T09:49:42;3.30;;;1.67;;
23390;SDS011;11868;45.606;5.302;2023-07-30T09:52:08;3.20;;;2.20;;
23390;SDS011;11868;45.606;5.302;2023-07-30T09:54:33;1.98;;;1.50;;
23390;SDS011;11868;45.606;5.302;2023-07-30T09:56:58;1.85;;;1.75;;
23390;SDS011;11868;45.606;5.302;2023-07-30T09:59:24;4.55;;;1.70;;
23390;SDS011;11868;45.606;5.302;2023-07-30T10:01:50;2.33;;;1.65;;
23390;SDS011;11868;45.606;5.302;2023-07-30T10:04:17;2.35;;;1.67;;
23390;SDS011;11868;45.606;5.302;2023-07-30T10:09:19;3.25;;;2.03;;
23390;SDS011;11868;45.606;5.302;2023-07-30T10:11:46;2.90;;;1.80;;
23390;SDS011;11868;45.606;5.302;2023-07-30T10:14:13;4.43;;;1.73;;
23390;SDS011;11868;45.606;5.302;2023-07-30T10:16:49;3.05;;;1.90;;
23390;SDS011;11868;45.606;5.302;2023-07-30T10:19:27;3.08;;;1.70;;
23390;SDS011;11868;45.606;5.302;2023-07-30T10:21:57;7.63;;;1.70;;
23390;SDS011;11868;45.606;5.302;2023-07-30T10:27:23;6.07;;;1.85;;
23390;SDS011;11868;45.606;5.302;2023-07-30T10:29:50;5.13;;;1.77;;
23390;SDS011;11868;45.606;5.302;2023-07-30T10:32:40;6.60;;;2.22;;
23390;SDS011;11868;45.606;5.302;2023-07-30T10:35:40;3.38;;;1.65;;
23390;SDS011;11868;45.606;5.302;2023-07-30T10:38:29;4.80;;;2.63;;
23390;SDS011;11868;45.606;5.302;2023-07-30T10:41:02;2.90;;;1.50;;
23390;SDS011;11868;45.606;5.302;2023-07-30T10:46:05;5.38;;;1.60;;
23390;SDS011;11868;45.606;5.302;2023-07-30T10:48:35;2.13;;;1.52;;
23390;SDS011;11868;45.606;5.302;2023-07-30T10:51:02;2.67;;;1.75;;
23390;SDS011;11868;45.606;5.302;2023-07-30T10:53:29;1.80;;;1.50;;
23390;SDS011;11868;45.606;5.302;2023-07-30T10:55:57;4.30;;;1.50;;
23390;SDS011;11868;45.606;5.302;2023-07-30T10:58:25;2.13;;;1.30;;
23390;SDS011;11868;45.606;5.302;2023-07-30T11:00:51;1.50;;;1.35;;
23390;SDS011;11868;45.606;5.302;2023-07-30T11:03:17;2.30;;;1.55;;
23390;SDS011;11868;45.606;5.302;2023-07-30T11:05:45;2.08;;;1.70;;
23390;SDS011;11868;45.606;5.302;2023-07-30T11:08:11;4.13;;;1.40;;
23390;SDS011;11868;45.606;5.302;2023-07-30T11:10:46;2.50;;;1.60;;
23390;SDS011;11868;45.606;5.302;2023-07-30T11:13:12;3.47;;;1.50;;
23390;SDS011;11868;45.606;5.302;2023-07-30T11:15:44;4.38;;;1.55;;
23390;SDS011;11868;45.606;5.302;2023-07-30T11:18:11;3.00;;;1.80;;
23390;SDS011;11868;45.606;5.302;2023-07-30T11:20:37;4.15;;;1.50;;
23390;SDS011;11868;45.606;5.302;2023-07-30T11:23:03;3.63;;;1.60;;
23390;SDS011;11868;45.606;5.302;2023-07-30T11:25:45;2.30;;;1.65;;
23390;SDS011;11868;45.606;5.302;2023-07-30T11:28:10;2.70;;;1.70;;
23390;SDS011;11868;45.606;5.302;2023-07-30T11:30:36;3.55;;;1.58;;
23390;SDS011;11868;45.606;5.302;2023-07-30T11:33:01;2.40;;;1.60;;
23390;SDS011;11868;45.606;5.302;2023-07-30T11:35:26;2.15;;;1.52;;
23390;SDS011;11868;45.606;5.302;2023-07-30T11:37:52;2.83;;;1.88;;
23390;SDS011;11868;45.606;5.302;2023-07-30T11:40:17;4.22;;;1.60;;
23390;SDS011;11868;45.606;5.302;2023-07-30T11:42:43;4.80;;;1.85;;
23390;SDS011;11868;45.606;5.302;2023-07-30T11:45:21;2.45;;;1.45;;
23390;SDS011;11868;45.606;5.302;2023-07-30T11:47:48;2.13;;;1.73;;
23390;SDS011;11868;45.606;5.302;2023-07-30T11:50:14;1.90;;;1.40;;
23390;SDS011;11868;45.606;5.302;2023-07-30T11:52:53;2.22;;;1.70;;
23390;SDS011;11868;45.606;5.302;2023-07-30T11:57:44;3.78;;;1.60;;
23390;SDS011;11868;45.606;5.302;2023-07-30T12:00:10;1.85;;;1.60;;
23390;SDS011;11868;45.606;5.302;2023-07-30T12:02:36;2.00;;;1.70;;
23390;SDS011;11868;45.606;5.302;2023-07-30T12:05:02;2.38;;;1.70;;
23390;SDS011;11868;45.606;5.302;2023-07-30T12:07:28;3.28;;;1.85;;
23390;SDS011;11868;45.606;5.302;2023-07-30T12:09:54;2.70;;;1.65;;
23390;SDS011;11868;45.606;5.302;2023-07-30T12:12:19;2.70;;;1.60;;
23390;SDS011;11868;45.606;5.302;2023-07-30T12:17:13;3.57;;;1.70;;
23390;SDS011;11868;45.606;5.302;2023-07-30T12:19:38;2.67;;;1.70;;
23390;SDS011;11868;45.606;5.302;2023-07-30T12:22:03;3.50;;;1.58;;
23390;SDS011;11868;45.606;5.302;2023-07-30T12:24:29;3.88;;;1.80;;
23390;SDS011;11868;45.606;5.302;2023-07-30T12:26:54;4.07;;;1.80;;
23390;SDS011;11868;45.606;5.302;2023-07-30T12:29:20;3.38;;;1.45;;
23390;SDS011;11868;45.606;5.302;2023-07-30T12:31:45;3.38;;;1.60;;
23390;SDS011;11868;45.606;5.302;2023-07-30T12:34:11;3.63;;;1.73;;
23390;SDS011;11868;45.606;5.302;2023-07-30T12:36:37;4.25;;;1.63;;
23390;SDS011;11868;45.606;5.302;2023-07-30T12:39:02;4.80;;;1.98;;
23390;SDS011;11868;45.606;5.302;2023-07-30T12:41:28;2.65;;;1.60;;
23390;SDS011;11868;45.606;5.302;2023-07-30T12:43:54;6.28;;;1.80;;
23390;SDS011;11868;45.606;5.302;2023-07-30T12:46:21;1.52;;;1.40;;
23390;SDS011;11868;45.606;5.302;2023-07-30T12:48:47;4.10;;;1.70;;
23390;SDS011;11868;45.606;5.302;2023-07-30T12:51:12;4.97;;;1.85;;
23390;SDS011;11868;45.606;5.302;2023-07-30T12:53:37;2.80;;;1.50;;
23390;SDS011;11868;45.606;5.302;2023-07-30T12:56:03;2.03;;;1.60;;
23390;SDS011;11868;45.606;5.302;2023-07-30T12:58:28;4.05;;;1.80;;
23390;SDS011;11868;45.606;5.302;2023-07-30T13:00:54;3.17;;;1.80;;
23390;SDS011;11868;45.606;5.302;2023-07-30T13:03:19;3.03;;;1.90;;
23390;SDS011;11868;45.606;5.302;2023-07-30T13:05:44;2.97;;;1.95;;
23390;SDS011;11868;45.606;5.302;2023-07-30T13:08:10;3.10;;;1.88;;
23390;SDS011;11868;45.606;5.302;2023-07-30T13:10:35;4.85;;;1.67;;
23390;SDS011;11868;45.606;5.302;2023-07-30T13:13:00;1.92;;;1.60;;
23390;SDS011;11868;45.606;5.302;2023-07-30T13:15:26;4.13;;;1.80;;
23390;SDS011;11868;45.606;5.302;2023-07-30T13:17:52;4.47;;;1.70;;
23390;SDS011;11868;45.606;5.302;2023-07-30T13:20:18;3.53;;;1.75;;
23390;SDS011;11868;45.606;5.302;2023-07-30T13:22:43;2.63;;;1.60;;
23390;SDS011;11868;45.606;5.302;2023-07-30T13:25:09;4.70;;;1.90;;
23390;SDS011;11868;45.606;5.302;2023-07-30T13:27:34;3.92;;;1.75;;
23390;SDS011;11868;45.606;5.302;2023-07-30T13:29:59;3.38;;;1.77;;
23390;SDS011;11868;45.606;5.302;2023-07-30T13:32:25;2.42;;;1.70;;
23390;SDS011;11868;45.606;5.302;2023-07-30T13:34:50;3.90;;;1.67;;
23390;SDS011;11868;45.606;5.302;2023-07-30T13:37:15;6.00;;;1.85;;
23390;SDS011;11868;45.606;5.302;2023-07-30T13:39:41;3.83;;;1.80;;
23390;SDS011;11868;45.606;5.302;2023-07-30T13:42:06;4.45;;;2.00;;
23390;SDS011;11868;45.606;5.302;2023-07-30T13:44:31;2.20;;;1.60;;
23390;SDS011;11868;45.606;5.302;2023-07-30T13:46:57;4.25;;;1.55;;
23390;SDS011;11868;45.606;5.302;2023-07-30T13:49:22;4.18;;;1.75;;
23390;SDS011;11868;45.606;5.302;2023-07-30T13:51:47;2.35;;;1.52;;
23390;SDS011;11868;45.606;5.302;2023-07-30T13:54:13;2.03;;;1.45;;
23390;SDS011;11868;45.606;5.302;2023-07-30T13:56:38;4.22;;;1.58;;
23390;SDS011;11868;45.606;5.302;2023-07-30T13:59:04;4.00;;;1.52;;
23390;SDS011;11868;45.606;5.302;2023-07-30T14:01:29;2.55;;;1.50;;
23390;SDS011;11868;45.606;5.302;2023-07-30T14:03:55;2.75;;;1.70;;
23390;SDS011;11868;45.606;5.302;2023-07-30T14:06:20;1.52;;;1.17;;
23390;SDS011;11868;45.606;5.302;2023-07-30T14:08:46;2.42;;;1.33;;
23390;SDS011;11868;45.606;5.302;2023-07-30T14:11:11;2.78;;;1.48;;
23390;SDS011;11868;45.606;5.302;2023-07-30T14:13:36;1.80;;;1.35;;
23390;SDS011;11868;45.606;5.302;2023-07-30T14:16:02;3.28;;;1.60;;
23390;SDS011;11868;45.606;5.302;2023-07-30T14:18:27;3.60;;;1.70;;
23390;SDS011;11868;45.606;5.302;2023-07-30T14:20:52;4.80;;;1.70;;
23390;SDS011;11868;45.606;5.302;2023-07-30T14:23:18;3.28;;;1.27;;
23390;SDS011;11868;45.606;5.302;2023-07-30T14:25:43;2.03;;;1.48;;
23390;SDS011;11868;45.606;5.302;2023-07-30T14:28:09;2.55;;;1.50;;
23390;SDS011;11868;45.606;5.302;2023-07-30T14:30:34;4.45;;;1.40;;
23390;SDS011;11868;45.606;5.302;2023-07-30T14:33:01;3.10;;;1.67;;
23390;SDS011;11868;45.606;5.302;2023-07-30T14:35:27;2.72;;;1.63;;
23390;SDS011;11868;45.606;5.302;2023-07-30T14:37:52;3.83;;;1.30;;
23390;SDS011;11868;45.606;5.302;2023-07-30T14:40:18;3.65;;;1.65;;
23390;SDS011;11868;45.606;5.302;2023-07-30T14:42:43;4.78;;;1.48;;
23390;SDS011;11868;45.606;5.302;2023-07-30T14:45:09;2.08;;;1.42;;
23390;SDS011;11868;45.606;5.302;2023-07-30T14:47:34;3.85;;;1.50;;
23390;SDS011;11868;45.606;5.302;2023-07-30T14:50:00;3.22;;;1.77;;
23390;SDS011;11868;45.606;5.302;2023-07-30T14:52:26;5.60;;;1.80;;
23390;SDS011;11868;45.606;5.302;2023-07-30T14:54:52;3.38;;;1.50;;
23390;SDS011;11868;45.606;5.302;2023-07-30T14:57:17;3.92;;;1.67;;